ctpe.net alexa rank chart, ctpe.net alexa rank daily changes

ctpe.net alexa rank chart, ctpe.net alexa rank daily changes

ctpe.net
Actual rank:
216 050

RANK HISTORY

Date Rank Diff
2017/08/18 216 050 -3 612
2017/08/17 219 662 +3 629
2017/08/16 216 033 -5 667
2017/08/15 221 700 +1 451
2017/08/14 220 249 -1 875
2017/08/13 222 124 -9 122
2017/08/12 231 246 +1 074
2017/08/11 230 172 -2 998
2017/08/10 233 170 +1 985
2017/08/09 231 185 -162
2017/08/08 231 347 +378
2017/08/07 230 969 -6 733
2017/08/06 237 702 +6 520
2017/08/05 231 182 -1 903
2017/08/04 233 085 -4 510
2017/08/03 237 595 -2 356
2017/08/02 239 951 -5 399
2017/08/01 245 350 +3 404
2017/07/31 241 946 -7 625
2017/07/30 249 571 -4 707
2017/07/29 254 278 +6 329
2017/07/28 247 949 +3 503
2017/07/27 244 446 -6 346
2017/07/26 250 792 -86
2017/07/25 250 878 +6 609
2017/07/24 244 269 -5 504
2017/07/23 249 773 +14 415
2017/07/22 235 358 -814
2017/07/21 236 172 -6 345
2017/07/20 242 517 -695
2017/07/19 243 212 +2 504
2017/07/18 240 708 +6 481
2017/07/17 234 227 -1 472
2017/07/16 235 699 +6 937
2017/07/15 228 762 -749
2017/07/14 229 511 -1 752
2017/07/13 231 263 +10 552
2017/07/12 220 711 +8 270
2017/07/11 212 441 -3 481
2017/07/10 215 922 -2 212
2017/07/09 218 134 -474
2017/07/08 218 608 -787
2017/07/07 219 395 +493
2017/07/06 218 902 -1 567
2017/07/05 220 469 +276
2017/07/04 220 193 -5 928
2017/07/03 226 121 -3 556
2017/07/02 229 677 +7 169
2017/07/01 222 508 +418
2017/06/30 222 090 +2 464
2017/06/29 219 626 -2 921
2017/06/28 222 547 +4 142
2017/06/27 218 405 -4 661
2017/06/26 223 066 -349
2017/06/25 223 415 +320
2017/06/24 223 095 +1 387
2017/06/23 221 708 -8 072
2017/06/22 229 780 +2 812
2017/06/21 226 968 -5 572
2017/06/20 232 540 -4 359
2017/06/19 236 899

WIDGET FOR YOUR SITE

DOMAINS WITH THE NEAREST RANK

Domain Rank
cornershopapp.com 216 045
2dogs.tokyo 216 046
vacationsbymarriott.com 216 047
burza.com.hr 216 048
aspensquare.com 216 049
ctpe.net 216 050
itsteziutlan.edu.mx 216 051
ahlalloghah.com 216 052
tianditu.com 216 053
ekuep.com 216 054
wallpapers-and-backgrounds.net 216 055

DOMAINS WITH THE NEAREST RANK BY TLD .net

Domain Rank
okring.net 215 918
tumegapelicula.net 215 975
24pawa.net 215 985
orgymania.net 216 014
comipems.net 216 041
ctpe.net 216 050
wallpapers-and-backgrounds.net 216 055
xxxteensex.net 216 080
hornyrls.net 216 100
bidvoy.net 216 154
ipspace.net 216 164